Airfield :
LOGIN :

Register | Disclaimer

   EN    FR    IT 

 










Legend :    VFR   Marginal VFR   IFR   Intensive IFR   Very Intensive IFR
Visi :
Ceiling :
>= 8 km
>= 3000ft
5 to 8 km
1000 to 3000 ft
1500m to 5 km
500 to 1000 ft
800 to 1500m
200 to 500 ft
< 800m
< 200 ft
Symbols :   Thunderstorms  Fog  Heavy snow  Heavy precipitations  Wind > 20 kt
SIGMETs :     Misc.  Thunderstorms  Icing  Turbulence  Mountain Waves  Volcanic Ashes







- Airport Elevation : 26 ft
- IATA code : GLA
- Download approach charts


EGPF - Glasgow

CURRENT METAR :
  • 152120Z AUTO 18018KT 7000 -RA BKN022/// //////TCU 10/08 Q1011 RERA

EXPIRED METARs :
  • 152050Z AUTO 17009KT 9999 -RA OVC021/// //////CB 10/07 Q1012
  • 152020Z AUTO 12004KT 090V190 9999 OVC021/// //////TCU 10/06 Q1012
  • 151950Z AUTO VRB02KT 9999 OVC023 10/06 Q1013
  • 151920Z AUTO VRB03KT 9999 BKN023 OVC033 10/06 Q1014
  • 151850Z AUTO 12004KT 080V170 9999 FEW027 OVC034 09/06 Q1014

TAF TAF EGPF
Valid from the 15 at 18:00 until the 16 at 18:00 UTC


151700Z 1518/1618 23005KT 9999 FEW045
TEMPO 1519/1606 22018G28KT
TEMPO 1519/1524 6000 RA BKN012
PROB40
TEMPO 1600/1609 BKN014
ATIS : +44 141 887 7449
No reported NOTAMs for that airfield.
1 SIGMET reported for the Scottish FIR (EGPX) :
 
Severe mountain waves
EGPX SIGMET 06 VALID 151900/152300 EGRR
EGPX SCOTTISH FIR SEV MTW FCST WI N5715 W00546 - N5802 W00405 - N5809 W00116 - N5500 W00027 - N5500 W00504 - N5715 W00546 FL030/260 STNR WKN=



MET'MAP, your aeronautical weather chart ! - Copyright ORBIFLY December 2007 - Disclaimer

ORBIFLY MET'MAP TEAM :

Programming & Development : Alexandra Zaïnal
Concept & Development : Baudouin d'Aumeries
Co-Development & Prog : Marc-Olivier Méhu
Technical & hardware support : Manuel Goepfert

Contact : metmap@orbifly.com




SOURCES & CREDITS :

   NOAA